createdAt,value
2023-02-05T00:03:51.869Z,7.57
2023-02-05T00:08:54.794Z,4.80
2023-02-05T00:13:57.777Z,3.43
2023-02-05T00:19:02.183Z,2.20
2023-02-05T00:24:05.417Z,5.77
2023-02-05T00:29:08.375Z,4.63
2023-02-05T00:34:12.609Z,3.07
2023-02-05T00:39:16.063Z,6.07
2023-02-05T00:44:19.011Z,5.40
2023-02-05T00:49:23.352Z,4.43
2023-02-05T00:54:26.389Z,8.70
2023-02-05T00:59:29.286Z,3.60
2023-02-05T01:04:33.568Z,5.00
2023-02-05T01:09:36.477Z,3.40
2023-02-05T01:14:39.490Z,4.13
2023-02-05T01:19:43.928Z,2.30
2023-02-05T01:24:46.959Z,2.70
2023-02-05T01:29:49.875Z,4.10
2023-02-05T01:34:54.170Z,4.50
2023-02-05T01:39:57.133Z,5.93
2023-02-05T01:45:37.162Z,3.57
2023-02-05T01:50:45.568Z,4.67
2023-02-05T01:55:54.138Z,3.13
2023-02-05T02:00:58.782Z,2.40
2023-02-05T02:06:04.784Z,3.70
2023-02-05T02:11:11.132Z,4.20
2023-02-05T02:16:14.941Z,4.00
2023-02-05T02:21:43.756Z,3.87
2023-02-05T02:27:01.116Z,3.40
2023-02-05T02:32:15.581Z,4.37
2023-02-05T02:37:26.177Z,8.07
2023-02-05T02:42:34.596Z,2.63
2023-02-05T02:47:45.537Z,6.80
2023-02-05T02:52:49.602Z,10.53
2023-02-05T02:57:54.813Z,4.00
2023-02-05T03:03:06.268Z,4.73
2023-02-05T03:08:14.602Z,7.07
2023-02-05T03:13:19.580Z,6.63
2023-02-05T03:18:31.341Z,7.80
2023-02-05T03:23:34.331Z,5.23
2023-02-05T03:28:37.357Z,5.63
2023-02-05T03:33:54.296Z,9.10
2023-02-05T03:39:10.722Z,3.40
2023-02-05T03:44:25.255Z,8.53
2023-02-05T03:49:38.446Z,5.47
2023-02-05T03:54:47.640Z,3.67
2023-02-05T03:59:58.082Z,5.53
2023-02-05T04:05:03.979Z,3.23
2023-02-05T04:10:07.833Z,3.37
2023-02-05T04:15:12.325Z,4.60
2023-02-05T04:20:22.097Z,5.93
2023-02-05T04:25:25.139Z,6.23
2023-02-05T04:30:30.294Z,11.20
2023-02-05T04:35:35.043Z,7.17
2023-02-05T04:40:41.008Z,5.90
2023-02-05T04:45:43.947Z,4.83
2023-02-05T04:50:48.740Z,6.17
2023-02-05T04:55:51.724Z,5.43
2023-02-05T05:00:54.670Z,4.60
2023-02-05T05:06:04.606Z,7.07
2023-02-05T05:11:08.805Z,4.67
2023-02-05T05:16:12.597Z,7.00
2023-02-05T05:21:16.949Z,4.87
2023-02-05T05:26:19.828Z,8.80
2023-02-05T05:31:22.824Z,7.53
2023-02-05T05:36:27.145Z,6.03
2023-02-05T05:41:47.528Z,4.37
2023-02-05T05:46:50.529Z,5.23
2023-02-05T05:51:54.732Z,6.07
2023-02-05T05:56:57.645Z,10.20
2023-02-05T06:02:02.477Z,6.37
2023-02-05T06:07:06.840Z,5.57
2023-02-05T06:12:11.673Z,4.70
2023-02-05T06:17:14.749Z,12.97
2023-02-05T06:22:19.023Z,13.70
2023-02-05T06:27:21.922Z,11.20
2023-02-05T06:32:26.804Z,10.00
2023-02-05T06:37:46.323Z,8.83
2023-02-05T06:42:50.231Z,8.90
2023-02-05T06:47:55.925Z,7.10
2023-02-05T06:53:00.285Z,9.37
2023-02-05T06:58:03.138Z,8.10
2023-02-05T07:03:06.108Z,4.03
2023-02-05T07:08:10.392Z,2.00
2023-02-05T07:13:13.307Z,2.07
2023-02-05T07:18:16.377Z,2.20
2023-02-05T07:23:20.619Z,3.27
2023-02-05T07:28:23.544Z,11.77
2023-02-05T07:33:26.441Z,8.77
2023-02-05T07:38:30.723Z,7.90
2023-02-05T07:43:33.663Z,8.93
2023-02-05T07:48:37.140Z,13.13
2023-02-05T07:53:41.392Z,10.90
2023-02-05T07:58:44.728Z,5.97
2023-02-05T08:03:47.622Z,14.27
2023-02-05T08:08:51.886Z,6.57
2023-02-05T08:13:54.811Z,12.70
2023-02-05T08:18:57.664Z,16.10
2023-02-05T08:24:02.188Z,12.30
2023-02-05T08:29:05.216Z,15.17
2023-02-05T08:34:08.177Z,18.40
2023-02-05T08:39:12.470Z,13.60
2023-02-05T08:44:15.464Z,8.93
2023-02-05T08:49:18.573Z,9.90
2023-02-05T08:54:22.974Z,24.53
2023-02-05T08:59:25.939Z,9.87
2023-02-05T09:04:29.306Z,12.67
2023-02-05T09:09:34.972Z,10.87
2023-02-05T09:14:38.122Z,11.93
2023-02-05T09:19:42.548Z,15.40
2023-02-05T09:24:46.904Z,13.40
2023-02-05T09:29:49.782Z,14.17
2023-02-05T09:34:52.694Z,12.43
2023-02-05T09:45:37.313Z,12.13
2023-02-05T09:50:42.541Z,13.33
2023-02-05T09:55:48.270Z,12.00
2023-02-05T10:00:54.810Z,13.20
2023-02-05T10:06:14.085Z,8.77
2023-02-05T10:11:27.905Z,13.87
2023-02-05T10:17:09.149Z,10.13
2023-02-05T10:22:19.515Z,5.23
2023-02-05T10:27:25.804Z,8.60
2023-02-05T10:32:40.055Z,9.10
2023-02-05T10:37:47.926Z,9.63
2023-02-05T10:42:56.028Z,6.77
2023-02-05T10:48:23.349Z,6.50
2023-02-05T10:53:27.908Z,6.10
2023-02-05T10:58:47.733Z,4.33
2023-02-05T11:03:55.934Z,7.00
2023-02-05T11:08:59.084Z,3.93
2023-02-05T11:14:07.166Z,6.80
2023-02-05T11:19:21.423Z,2.97
2023-02-05T11:24:29.004Z,3.00
2023-02-05T11:29:33.264Z,4.50
2023-02-05T11:34:36.215Z,4.90
2023-02-05T11:39:41.399Z,4.03
2023-02-05T11:44:51.149Z,7.00
2023-02-05T11:49:55.135Z,3.70
2023-02-05T11:54:58.148Z,4.07
2023-02-05T12:00:19.339Z,5.10
2023-02-05T12:05:27.223Z,3.60
2023-02-05T12:10:38.820Z,3.77
2023-02-05T12:15:48.869Z,5.43
2023-02-05T12:21:05.976Z,3.67
2023-02-05T12:26:27.422Z,7.70
2023-02-05T12:31:47.069Z,4.13
2023-02-05T12:37:05.299Z,3.20
2023-02-05T12:42:22.749Z,4.80
2023-02-05T12:47:45.347Z,3.00
2023-02-05T12:53:13.635Z,4.20
2023-02-05T12:58:18.542Z,3.47
2023-02-05T13:03:29.647Z,2.30
2023-02-05T13:08:42.772Z,2.40
2023-02-05T13:13:53.109Z,1.83
2023-02-05T13:19:03.209Z,3.77
2023-02-05T13:24:40.786Z,2.70
2023-02-05T13:29:51.385Z,3.23
2023-02-05T13:34:58.633Z,2.53
2023-02-05T13:40:40.157Z,3.57
2023-02-05T13:46:20.806Z,3.37
2023-02-05T13:51:40.118Z,1.50
2023-02-05T13:56:49.533Z,4.07
2023-02-05T14:01:57.901Z,2.70
2023-02-05T14:07:05.345Z,2.83
2023-02-05T14:12:11.305Z,6.60
2023-02-05T14:17:47.199Z,4.00
2023-02-05T14:22:52.620Z,2.53
2023-02-05T14:27:56.875Z,3.30
2023-02-05T14:33:01.112Z,2.10
2023-02-05T14:38:17.341Z,2.80
2023-02-05T14:43:28.435Z,3.00
2023-02-05T14:48:34.314Z,4.00
2023-02-05T14:53:39.879Z,3.07
2023-02-05T14:58:45.209Z,4.60
2023-02-05T15:03:48.322Z,3.77
2023-02-05T15:09:00.618Z,5.70
2023-02-05T15:14:44.381Z,4.17
2023-02-05T15:19:52.705Z,5.63
2023-02-05T15:24:58.158Z,3.70
2023-02-05T15:30:09.163Z,3.37
2023-02-05T15:35:17.444Z,3.77
2023-02-05T15:40:25.964Z,5.10
2023-02-05T15:45:31.914Z,9.60
2023-02-05T15:50:37.122Z,7.90
2023-02-05T15:55:41.426Z,9.07
2023-02-05T16:00:47.823Z,8.60
2023-02-05T16:05:53.142Z,4.00
2023-02-05T16:11:01.915Z,6.50
2023-02-05T16:16:09.576Z,5.37
2023-02-05T16:21:18.695Z,5.70
2023-02-05T16:26:27.825Z,8.87
2023-02-05T16:31:33.574Z,7.50
2023-02-05T16:36:40.052Z,4.77
2023-02-05T16:41:45.183Z,6.30
2023-02-05T16:47:06.682Z,7.80
2023-02-05T16:52:31.864Z,8.33
2023-02-05T16:57:39.846Z,5.97
2023-02-05T17:02:43.209Z,5.50
2023-02-05T17:07:55.461Z,6.63
2023-02-05T17:13:04.862Z,12.40
2023-02-05T17:18:26.565Z,7.20
2023-02-05T17:23:29.449Z,11.93
2023-02-05T17:28:38.096Z,10.07
2023-02-05T17:33:41.057Z,8.87
2023-02-05T17:38:44.059Z,8.30
2023-02-05T17:43:48.412Z,6.10
2023-02-05T17:48:51.346Z,9.57
2023-02-05T17:53:54.629Z,13.60
2023-02-05T17:58:59.896Z,13.80
2023-02-05T18:04:02.915Z,96.83
2023-02-05T18:09:06.267Z,35.80
2023-02-05T18:14:12.590Z,11.30
2023-02-05T18:19:15.801Z,41.47
2023-02-05T18:24:18.725Z,38.67
2023-02-05T18:29:23.198Z,16.97
2023-02-05T18:34:27.706Z,15.70
2023-02-05T18:39:30.629Z,37.53
2023-02-05T18:44:35.177Z,11.00
2023-02-05T18:49:38.153Z,15.07
2023-02-05T18:54:41.355Z,18.40
2023-02-05T18:59:48.461Z,18.83
2023-02-05T19:04:55.733Z,23.07
2023-02-05T19:09:59.356Z,21.77
2023-02-05T19:15:03.684Z,21.33
2023-02-05T19:20:07.353Z,25.50
2023-02-05T19:25:10.248Z,24.43
2023-02-05T19:30:15.093Z,27.17
2023-02-05T19:35:18.276Z,22.77
2023-02-05T19:40:21.605Z,19.43
2023-02-05T19:45:25.848Z,13.80
2023-02-05T19:50:28.757Z,14.23
2023-02-05T19:55:33.049Z,13.90
2023-02-05T20:00:37.530Z,14.57
2023-02-05T20:05:40.485Z,20.07
2023-02-05T20:10:43.393Z,22.83
2023-02-05T20:15:47.794Z,15.70
2023-02-05T20:20:50.726Z,20.50
2023-02-05T20:25:57.537Z,21.93
2023-02-05T20:31:19.737Z,19.23
2023-02-05T20:36:22.807Z,22.73
2023-02-05T20:41:26.178Z,22.33
2023-02-05T20:46:31.130Z,24.33
2023-02-05T20:51:34.077Z,14.00
2023-02-05T20:56:37.308Z,12.80
2023-02-05T21:01:41.633Z,9.80
2023-02-05T21:06:44.588Z,17.83
2023-02-05T21:11:47.727Z,12.40
2023-02-05T21:16:52.098Z,14.30
2023-02-05T21:21:54.995Z,19.30
2023-02-05T21:26:57.987Z,16.70
2023-02-05T21:32:02.393Z,18.47
2023-02-05T21:37:05.306Z,25.10
2023-02-05T21:42:08.224Z,23.87
2023-02-05T21:47:12.506Z,23.80
2023-02-05T21:52:15.572Z,23.83
2023-02-05T21:57:18.607Z,24.50
2023-02-05T22:02:22.993Z,27.20
2023-02-05T22:07:26.073Z,17.47
2023-02-05T22:12:28.989Z,13.30
2023-02-05T22:17:33.272Z,10.90
2023-02-05T22:22:36.457Z,20.17
2023-02-05T22:27:39.384Z,16.10
2023-02-05T22:32:43.694Z,20.30
2023-02-05T22:37:46.576Z,19.27
2023-02-05T22:42:49.487Z,25.23
2023-02-05T22:47:53.759Z,19.37
2023-02-05T22:52:56.699Z,20.57
2023-02-05T22:57:59.618Z,14.20
2023-02-05T23:03:03.959Z,23.57
2023-02-05T23:08:06.976Z,15.30
2023-02-05T23:13:09.990Z,20.53
2023-02-05T23:18:14.305Z,15.73
2023-02-05T23:23:17.202Z,16.30
2023-02-05T23:28:21.858Z,16.23
2023-02-05T23:33:26.173Z,17.13
2023-02-05T23:38:29.133Z,13.63
2023-02-05T23:43:33.219Z,21.60
2023-02-05T23:48:37.504Z,15.67
2023-02-05T23:53:40.454Z,24.57
2023-02-05T23:58:43.339Z,20.43
